This is the latest recevied weather packets stored in our database for station/object E23XBQ-1. If no packets are shown the sender has not sent any weather packets the latest 1 day(s).
| Time | Temp. | Humidity | Pressure | Rain* | Wind** | Luminosity | Snow |
|---|---|---|---|---|---|---|---|
| 1778070306 | 30° C | 87% | 968 hPa | - | - | 0 W/m² | - |
| 1778069208 | 30° C | 80% | 968 hPa | - | - | 0 W/m² | - |
| 1778068583 | 30° C | 83% | 968 hPa | - | - | 0 W/m² | - |
| 1778067017 | 31.11° C | 80% | 967 hPa | - | - | 0 W/m² | - |
| 1778066392 | 31.67° C | 69% | 967 hPa | - | - | 0 W/m² | - |
| 1778065767 | 32.22° C | 69% | 967 hPa | - | - | 0 W/m² | - |
| 1778065142 | 32.78° C | 62% | 967 hPa | - | - | 0 W/m² | - |
| 1778064517 | 32.78° C | 63% | 967 hPa | - | - | 0 W/m² | - |
| 1778063893 | 33.33° C | 60% | 967 hPa | - | - | 0 W/m² | - |
| 1778062644 | 33.89° C | 54% | 967 hPa | - | - | 0 W/m² | - |
| 1778062019 | 34.44° C | 57% | 967 hPa | - | - | 0 W/m² | - |
| 1778060770 | 34.44° C | 59% | 967 hPa | - | - | 0 W/m² | - |
| 1778060230 | 33.89° C | 66% | 967 hPa | - | - | 0 W/m² | - |
| 1778058355 | 32.78° C | 68% | 968 hPa | - | - | 0 W/m² | - |
| 1778057105 | 33.33° C | 69% | 968 hPa | - | - | 0 W/m² | - |
| 1778053981 | 35.56° C | 48% | 968 hPa | - | - | 0 W/m² | - |
| 1778053355 | 36.67° C | 43% | 968 hPa | - | - | 0 W/m² | - |
| 1778052730 | 37.22° C | 41% | 968 hPa | - | - | 0 W/m² | - |
| 1778052105 | 38.33° C | 39% | 968 hPa | - | - | 0 W/m² | - |
| 1778051481 | 38.89° C | 38% | 969 hPa | - | - | 0 W/m² | - |
| 1778050232 | 39.44° C | 36% | 969 hPa | - | - | 0 W/m² | - |
| 1778049607 | 39.44° C | 38% | 969 hPa | - | - | 0 W/m² | - |
| 1778048982 | 38.89° C | 39% | 970 hPa | - | - | 0 W/m² | - |
| 1778048541 | 38.89° C | 39% | 970 hPa | - | - | 0 W/m² | - |
| 1778047292 | 38.33° C | 39% | 970 hPa | - | - | 0 W/m² | - |
* Rain since midnight (hover to see other rain measurements)
** Current wind speed in m/s (hover to see current wind gust speed)